sensor_id;sensor_type;location;lat;lon;timestamp;pressure;altitude;pressure_sealevel;temperature;humidity
6134;BME280;3098;42.678;23.364;2023-05-22T00:00:03;94626.88;;;13.47;100.00
6134;BME280;3098;42.678;23.364;2023-05-22T00:02:33;94688.44;;;13.90;100.00
6134;BME280;3098;42.678;23.364;2023-05-22T00:05:03;94678.53;;;13.91;100.00
6134;BME280;3098;42.678;23.364;2023-05-22T00:07:31;94667.31;;;13.85;100.00
6134;BME280;3098;42.678;23.364;2023-05-22T00:09:58;94681.53;;;14.01;100.00
6134;BME280;3098;42.678;23.364;2023-05-22T00:12:25;94647.66;;;13.77;100.00
6134;BME280;3098;42.678;23.364;2023-05-22T00:14:52;94609.47;;;13.61;100.00
6134;BME280;3098;42.678;23.364;2023-05-22T00:17:19;94689.44;;;14.10;100.00
6134;BME280;3098;42.678;23.364;2023-05-22T00:19:48;94583.47;;;13.46;100.00
6134;BME280;3098;42.678;23.364;2023-05-22T00:22:15;94657.97;;;13.91;100.00
6134;BME280;3098;42.678;23.364;2023-05-22T00:24:43;94610.81;;;13.67;100.00
6134;BME280;3098;42.678;23.364;2023-05-22T00:27:10;94683.19;;;14.06;100.00
6134;BME280;3098;42.678;23.364;2023-05-22T00:29:37;94675.41;;;13.89;100.00
6134;BME280;3098;42.678;23.364;2023-05-22T00:32:05;94669.31;;;13.88;100.00
6134;BME280;3098;42.678;23.364;2023-05-22T00:34:32;94684.53;;;14.00;100.00
6134;BME280;3098;42.678;23.364;2023-05-22T00:37:01;94686.19;;;13.92;100.00
6134;BME280;3098;42.678;23.364;2023-05-22T00:39:28;94687.31;;;13.91;100.00
6134;BME280;3098;42.678;23.364;2023-05-22T00:41:55;94660.66;;;13.79;100.00
6134;BME280;3098;42.678;23.364;2023-05-22T00:44:22;94690.75;;;14.04;100.00
6134;BME280;3098;42.678;23.364;2023-05-22T00:46:49;94692.63;;;13.91;100.00
6134;BME280;3098;42.678;23.364;2023-05-22T00:49:16;94693.53;;;14.07;100.00
6134;BME280;3098;42.678;23.364;2023-05-22T00:51:43;94690.53;;;13.97;100.00
6134;BME280;3098;42.678;23.364;2023-05-22T00:54:12;94696.44;;;13.90;100.00
6134;BME280;3098;42.678;23.364;2023-05-22T00:56:41;94672.53;;;13.81;100.00
6134;BME280;3098;42.678;23.364;2023-05-22T00:59:09;94646.97;;;13.68;100.00
6134;BME280;3098;42.678;23.364;2023-05-22T01:01:36;94667.66;;;13.83;100.00
6134;BME280;3098;42.678;23.364;2023-05-22T01:04:07;94681.97;;;13.91;100.00
6134;BME280;3098;42.678;23.364;2023-05-22T01:06:36;94683.31;;;13.97;100.00
6134;BME280;3098;42.678;23.364;2023-05-22T01:09:03;94660.53;;;13.75;100.00
6134;BME280;3098;42.678;23.364;2023-05-22T01:11:36;94688.44;;;13.90;100.00
6134;BME280;3098;42.678;23.364;2023-05-22T01:14:13;94615.13;;;13.48;100.00
6134;BME280;3098;42.678;23.364;2023-05-22T01:16:51;94688.09;;;13.92;100.00
6134;BME280;3098;42.678;23.364;2023-05-22T01:19:36;94696.53;;;13.94;100.00
6134;BME280;3098;42.678;23.364;2023-05-22T01:22:20;94678.88;;;13.89;100.00
6134;BME280;3098;42.678;23.364;2023-05-22T01:25:08;94668.09;;;13.86;100.00
6134;BME280;3098;42.678;23.364;2023-05-22T01:28:08;94607.00;;;13.44;100.00
6134;BME280;3098;42.678;23.364;2023-05-22T01:30:46;94635.44;;;13.52;100.00
6134;BME280;3098;42.678;23.364;2023-05-22T01:33:17;94660.88;;;13.62;100.00
6134;BME280;3098;42.678;23.364;2023-05-22T01:35:46;94643.78;;;13.51;100.00
6134;BME280;3098;42.678;23.364;2023-05-22T01:38:15;94675.97;;;13.58;100.00
6134;BME280;3098;42.678;23.364;2023-05-22T01:40:43;94670.63;;;13.58;100.00
6134;BME280;3098;42.678;23.364;2023-05-22T01:43:12;94640.31;;;13.38;100.00
6134;BME280;3098;42.678;23.364;2023-05-22T01:45:39;94671.63;;;13.53;100.00
6134;BME280;3098;42.678;23.364;2023-05-22T01:48:08;94662.75;;;13.49;100.00
6134;BME280;3098;42.678;23.364;2023-05-22T01:50:36;94667.38;;;13.40;100.00
6134;BME280;3098;42.678;23.364;2023-05-22T01:53:09;94557.13;;;12.63;100.00
6134;BME280;3098;42.678;23.364;2023-05-22T01:55:42;94670.25;;;13.35;100.00
6134;BME280;3098;42.678;23.364;2023-05-22T01:58:18;94654.25;;;13.23;100.00
6134;BME280;3098;42.678;23.364;2023-05-22T02:00:48;94644.69;;;13.10;100.00
6134;BME280;3098;42.678;23.364;2023-05-22T02:03:26;94670.56;;;13.21;100.00
6134;BME280;3098;42.678;23.364;2023-05-22T02:05:59;94598.53;;;12.52;100.00
6134;BME280;3098;42.678;23.364;2023-05-22T02:08:28;94641.22;;;12.77;100.00
6134;BME280;3098;42.678;23.364;2023-05-22T02:10:58;94667.19;;;12.80;100.00
6134;BME280;3098;42.678;23.364;2023-05-22T02:13:27;94626.44;;;12.46;100.00
6134;BME280;3098;42.678;23.364;2023-05-22T02:15:55;94650.81;;;12.69;100.00
6134;BME280;3098;42.678;23.364;2023-05-22T02:18:26;94615.81;;;12.46;100.00
6134;BME280;3098;42.678;23.364;2023-05-22T02:20:55;94672.88;;;12.90;100.00
6134;BME280;3098;42.678;23.364;2023-05-22T02:23:22;94664.84;;;12.78;100.00
6134;BME280;3098;42.678;23.364;2023-05-22T02:25:50;94614.84;;;12.51;100.00
6134;BME280;3098;42.678;23.364;2023-05-22T02:28:17;94673.75;;;12.82;100.00
6134;BME280;3098;42.678;23.364;2023-05-22T02:30:44;94670.53;;;12.89;100.00
6134;BME280;3098;42.678;23.364;2023-05-22T02:33:11;94643.84;;;12.64;100.00
6134;BME280;3098;42.678;23.364;2023-05-22T02:35:40;94676.00;;;12.72;100.00
6134;BME280;3098;42.678;23.364;2023-05-22T02:38:07;94586.44;;;12.01;100.00
6134;BME280;3098;42.678;23.364;2023-05-22T02:40:34;94670.38;;;12.52;100.00
6134;BME280;3098;42.678;23.364;2023-05-22T02:43:01;94612.19;;;12.09;100.00
6134;BME280;3098;42.678;23.364;2023-05-22T02:45:28;94635.69;;;12.28;100.00
6134;BME280;3098;42.678;23.364;2023-05-22T02:47:55;94671.41;;;12.60;100.00
6134;BME280;3098;42.678;23.364;2023-05-22T02:50:22;94665.75;;;12.41;100.00
6134;BME280;3098;42.678;23.364;2023-05-22T02:52:50;94643.44;;;12.33;100.00
6134;BME280;3098;42.678;23.364;2023-05-22T02:55:18;94659.47;;;12.45;100.00
6134;BME280;3098;42.678;23.364;2023-05-22T02:57:46;94680.56;;;12.50;100.00
6134;BME280;3098;42.678;23.364;2023-05-22T03:00:14;94677.56;;;12.52;100.00
6134;BME280;3098;42.678;23.364;2023-05-22T03:02:41;94667.84;;;12.56;100.00
6134;BME280;3098;42.678;23.364;2023-05-22T03:05:08;94676.59;;;12.56;100.00
6134;BME280;3098;42.678;23.364;2023-05-22T03:07:35;94671.41;;;12.60;100.00
6134;BME280;3098;42.678;23.364;2023-05-22T03:10:05;94673.81;;;12.53;100.00
6134;BME280;3098;42.678;23.364;2023-05-22T03:12:32;94671.56;;;12.43;100.00
6134;BME280;3098;42.678;23.364;2023-05-22T03:14:59;94678.69;;;12.51;100.00
6134;BME280;3098;42.678;23.364;2023-05-22T03:17:26;94673.41;;;12.63;100.00
6134;BME280;3098;42.678;23.364;2023-05-22T03:19:53;94668.13;;;12.96;100.00
6134;BME280;3098;42.678;23.364;2023-05-22T03:22:20;94674.38;;;13.33;100.00
6134;BME280;3098;42.678;23.364;2023-05-22T03:24:47;94662.63;;;13.34;100.00
6134;BME280;3098;42.678;23.364;2023-05-22T03:27:16;94673.06;;;13.39;100.00
6134;BME280;3098;42.678;23.364;2023-05-22T03:29:44;94651.56;;;13.11;100.00
6134;BME280;3098;42.678;23.364;2023-05-22T03:32:11;94670.53;;;13.09;100.00
6134;BME280;3098;42.678;23.364;2023-05-22T03:34:39;94669.47;;;13.02;100.00
6134;BME280;3098;42.678;23.364;2023-05-22T03:37:06;94666.47;;;13.03;100.00
6134;BME280;3098;42.678;23.364;2023-05-22T03:39:33;94656.25;;;12.93;100.00
6134;BME280;3098;42.678;23.364;2023-05-22T03:42:00;94505.81;;;12.30;100.00
6134;BME280;3098;42.678;23.364;2023-05-22T03:44:29;94677.00;;;13.90;100.00
6134;BME280;3098;42.678;23.364;2023-05-22T03:46:56;94669.41;;;14.40;100.00
6134;BME280;3098;42.678;23.364;2023-05-22T03:49:23;94669.06;;;14.29;100.00
6134;BME280;3098;42.678;23.364;2023-05-22T03:51:50;94671.88;;;13.97;100.00
6134;BME280;3098;42.678;23.364;2023-05-22T03:54:17;94618.78;;;13.79;100.00
6134;BME280;3098;42.678;23.364;2023-05-22T03:56:44;94668.53;;;14.12;100.00
6134;BME280;3098;42.678;23.364;2023-05-22T03:59:11;94647.97;;;13.88;100.00
6134;BME280;3098;42.678;23.364;2023-05-22T04:01:39;94656.09;;;13.92;100.00
6134;BME280;3098;42.678;23.364;2023-05-22T04:04:06;94614.91;;;13.53;100.00
6134;BME280;3098;42.678;23.364;2023-05-22T04:06:36;94679.97;;;13.88;100.00
6134;BME280;3098;42.678;23.364;2023-05-22T04:09:08;94682.31;;;13.90;100.00
6134;BME280;3098;42.678;23.364;2023-05-22T04:11:36;94688.44;;;14.38;100.00
6134;BME280;3098;42.678;23.364;2023-05-22T04:14:06;94627.00;;;14.51;100.00
6134;BME280;3098;42.678;23.364;2023-05-22T04:16:34;94645.50;;;14.99;100.00
6134;BME280;3098;42.678;23.364;2023-05-22T04:19:02;94674.09;;;15.70;100.00
6134;BME280;3098;42.678;23.364;2023-05-22T04:21:30;94679.94;;;16.22;100.00
6134;BME280;3098;42.678;23.364;2023-05-22T04:24:00;94660.41;;;16.37;100.00
6134;BME280;3098;42.678;23.364;2023-05-22T04:26:31;94682.09;;;16.86;100.00
6134;BME280;3098;42.678;23.364;2023-05-22T04:28:58;94685.56;;;17.25;100.00
6134;BME280;3098;42.678;23.364;2023-05-22T04:31:25;94656.88;;;17.71;99.99
6134;BME280;3098;42.678;23.364;2023-05-22T04:33:52;94679.53;;;18.19;94.45
6134;BME280;3098;42.678;23.364;2023-05-22T04:36:21;94610.41;;;18.42;90.43
6134;BME280;3098;42.678;23.364;2023-05-22T04:38:50;94633.84;;;19.05;84.07
6134;BME280;3098;42.678;23.364;2023-05-22T04:41:18;94669.91;;;18.70;84.41
6134;BME280;3098;42.678;23.364;2023-05-22T04:43:46;94682.34;;;19.12;83.05
6134;BME280;3098;42.678;23.364;2023-05-22T04:46:14;94681.16;;;20.27;80.07
6134;BME280;3098;42.678;23.364;2023-05-22T04:48:42;94681.50;;;20.83;71.23
6134;BME280;3098;42.678;23.364;2023-05-22T04:51:09;94596.78;;;20.74;70.17
6134;BME280;3098;42.678;23.364;2023-05-22T04:53:38;94683.06;;;22.41;65.49
6134;BME280;3098;42.678;23.364;2023-05-22T04:56:08;94683.56;;;23.51;57.61
6134;BME280;3098;42.678;23.364;2023-05-22T04:58:35;94671.13;;;24.19;53.16
6134;BME280;3098;42.678;23.364;2023-05-22T05:01:04;94640.56;;;23.64;51.50
6134;BME280;3098;42.678;23.364;2023-05-22T05:03:32;94679.97;;;24.27;52.39
6134;BME280;3098;42.678;23.364;2023-05-22T05:06:00;94687.22;;;25.83;47.49
6134;BME280;3098;42.678;23.364;2023-05-22T05:08:26;94674.94;;;27.14;42.93
6134;BME280;3098;42.678;23.364;2023-05-22T05:10:56;94683.59;;;25.89;46.51
6134;BME280;3098;42.678;23.364;2023-05-22T05:13:23;94688.38;;;27.44;42.35
6134;BME280;3098;42.678;23.364;2023-05-22T05:15:50;94634.19;;;25.41;43.15
6134;BME280;3098;42.678;23.364;2023-05-22T05:18:18;94700.00;;;26.82;42.27
6134;BME280;3098;42.678;23.364;2023-05-22T05:20:45;94680.16;;;26.39;42.25
6134;BME280;3098;42.678;23.364;2023-05-22T05:23:12;94666.03;;;26.47;42.06
6134;BME280;3098;42.678;23.364;2023-05-22T05:25:40;94689.50;;;26.38;43.07
6134;BME280;3098;42.678;23.364;2023-05-22T05:28:08;94697.75;;;27.39;40.01
6134;BME280;3098;42.678;23.364;2023-05-22T05:30:37;94674.81;;;28.28;37.91
6134;BME280;3098;42.678;23.364;2023-05-22T05:33:04;94664.88;;;26.68;38.61
6134;BME280;3098;42.678;23.364;2023-05-22T05:35:31;94669.56;;;27.10;39.26
6134;BME280;3098;42.678;23.364;2023-05-22T05:37:58;94541.09;;;26.17;38.81
6134;BME280;3098;42.678;23.364;2023-05-22T05:40:26;94642.63;;;26.96;38.59
6134;BME280;3098;42.678;23.364;2023-05-22T05:42:52;94643.81;;;27.70;36.92
6134;BME280;3098;42.678;23.364;2023-05-22T05:45:22;94630.50;;;28.08;35.63
6134;BME280;3098;42.678;23.364;2023-05-22T05:47:48;94697.75;;;28.79;35.10
6134;BME280;3098;42.678;23.364;2023-05-22T05:50:16;94703.19;;;28.47;36.00
6134;BME280;3098;42.678;23.364;2023-05-22T05:52:43;94577.06;;;26.67;37.08
6134;BME280;3098;42.678;23.364;2023-05-22T05:55:10;94621.84;;;26.40;37.56
6134;BME280;3098;42.678;23.364;2023-05-22T05:57:37;94700.47;;;26.77;38.87
6134;BME280;3098;42.678;23.364;2023-05-22T06:00:06;94693.72;;;26.42;39.36
6134;BME280;3098;42.678;23.364;2023-05-22T06:02:36;94699.00;;;26.26;39.62
6134;BME280;3098;42.678;23.364;2023-05-22T06:05:05;94706.91;;;26.90;37.94
6134;BME280;3098;42.678;23.364;2023-05-22T06:07:33;94644.75;;;25.35;39.51
6134;BME280;3098;42.678;23.364;2023-05-22T06:10:03;94699.38;;;25.41;40.24
6134;BME280;3098;42.678;23.364;2023-05-22T06:12:30;94702.31;;;24.41;40.50
6134;BME280;3098;42.678;23.364;2023-05-22T06:14:57;94697.53;;;23.32;42.44
6134;BME280;3098;42.678;23.364;2023-05-22T06:17:25;94682.25;;;22.86;44.92
6134;BME280;3098;42.678;23.364;2023-05-22T06:19:53;94705.25;;;23.37;43.24
6134;BME280;3098;42.678;23.364;2023-05-22T06:22:20;94705.41;;;23.88;42.83
6134;BME280;3098;42.678;23.364;2023-05-22T06:24:50;94700.75;;;22.99;44.12
6134;BME280;3098;42.678;23.364;2023-05-22T06:27:18;94684.94;;;22.86;44.26
6134;BME280;3098;42.678;23.364;2023-05-22T06:29:47;94675.41;;;23.58;43.45
6134;BME280;3098;42.678;23.364;2023-05-22T06:32:15;94662.13;;;25.41;40.19
6134;BME280;3098;42.678;23.364;2023-05-22T06:34:45;94681.03;;;26.32;38.81
6134;BME280;3098;42.678;23.364;2023-05-22T06:37:14;94693.41;;;26.83;36.74
6134;BME280;3098;42.678;23.364;2023-05-22T06:39:42;94682.28;;;29.18;33.97
6134;BME280;3098;42.678;23.364;2023-05-22T06:42:09;94704.38;;;30.18;31.95
6134;BME280;3098;42.678;23.364;2023-05-22T06:44:38;94684.63;;;28.42;33.21
6134;BME280;3098;42.678;23.364;2023-05-22T06:47:06;94661.44;;;27.66;33.29
6134;BME280;3098;42.678;23.364;2023-05-22T06:49:34;94642.47;;;27.78;34.46
6134;BME280;3098;42.678;23.364;2023-05-22T06:52:01;94649.19;;;25.83;36.58
6134;BME280;3098;42.678;23.364;2023-05-22T06:54:30;94713.25;;;25.50;37.06
6134;BME280;3098;42.678;23.364;2023-05-22T06:56:57;94653.91;;;26.28;35.77
6134;BME280;3098;42.678;23.364;2023-05-22T06:59:24;94705.41;;;29.00;31.54
6134;BME280;3098;42.678;23.364;2023-05-22T07:01:52;94707.53;;;29.22;31.13
6134;BME280;3098;42.678;23.364;2023-05-22T07:04:19;94651.56;;;27.56;33.23
6134;BME280;3098;42.678;23.364;2023-05-22T07:06:46;94703.44;;;24.44;38.16
6134;BME280;3098;42.678;23.364;2023-05-22T07:09:13;94607.34;;;24.11;39.19
6134;BME280;3098;42.678;23.364;2023-05-22T07:11:41;94583.53;;;23.85;38.30
6134;BME280;3098;42.678;23.364;2023-05-22T07:14:09;94649.03;;;22.86;41.12
6134;BME280;3098;42.678;23.364;2023-05-22T07:16:38;94524.19;;;22.98;39.72
6134;BME280;3098;42.678;23.364;2023-05-22T07:19:05;94698.56;;;24.28;38.97
6134;BME280;3098;42.678;23.364;2023-05-22T07:21:33;94696.16;;;24.78;39.03
6134;BME280;3098;42.678;23.364;2023-05-22T07:24:01;94696.91;;;24.86;39.08
6134;BME280;3098;42.678;23.364;2023-05-22T07:26:33;94672.41;;;24.52;39.21
6134;BME280;3098;42.678;23.364;2023-05-22T07:29:01;94654.03;;;22.91;43.19
6134;BME280;3098;42.678;23.364;2023-05-22T07:31:28;94702.72;;;22.59;44.72
6134;BME280;3098;42.678;23.364;2023-05-22T07:33:56;94695.63;;;23.32;44.63
6134;BME280;3098;42.678;23.364;2023-05-22T07:36:23;94694.19;;;22.96;44.97
6134;BME280;3098;42.678;23.364;2023-05-22T07:38:53;94586.16;;;22.47;43.71
6134;BME280;3098;42.678;23.364;2023-05-22T07:41:20;94647.03;;;23.01;42.55
6134;BME280;3098;42.678;23.364;2023-05-22T07:43:48;94484.41;;;22.05;42.96
6134;BME280;3098;42.678;23.364;2023-05-22T07:46:17;94693.44;;;22.85;43.83
6134;BME280;3098;42.678;23.364;2023-05-22T07:48:44;94612.09;;;23.38;41.30
6134;BME280;3098;42.678;23.364;2023-05-22T07:51:12;94652.94;;;22.46;43.11
6134;BME280;3098;42.678;23.364;2023-05-22T07:53:39;94586.63;;;21.89;43.49
6134;BME280;3098;42.678;23.364;2023-05-22T07:56:06;94666.22;;;23.38;42.44
6134;BME280;3098;42.678;23.364;2023-05-22T07:58:33;94679.72;;;23.41;42.79
6134;BME280;3098;42.678;23.364;2023-05-22T08:01:02;94691.69;;;25.02;39.65
6134;BME280;3098;42.678;23.364;2023-05-22T08:03:31;94671.81;;;26.49;36.58
6134;BME280;3098;42.678;23.364;2023-05-22T08:05:59;94539.31;;;25.03;37.34
6134;BME280;3098;42.678;23.364;2023-05-22T08:08:26;94536.78;;;23.19;40.66
6134;BME280;3098;42.678;23.364;2023-05-22T08:10:53;94691.06;;;23.08;42.24
6134;BME280;3098;42.678;23.364;2023-05-22T08:13:21;94553.00;;;22.39;42.63
6134;BME280;3098;42.678;23.364;2023-05-22T08:15:48;94684.34;;;23.44;41.76
6134;BME280;3098;42.678;23.364;2023-05-22T08:18:16;94663.28;;;23.77;41.45
6134;BME280;3098;42.678;23.364;2023-05-22T08:20:44;94603.91;;;25.15;38.38
6134;BME280;3098;42.678;23.364;2023-05-22T08:23:12;94664.41;;;26.00;37.61
6134;BME280;3098;42.678;23.364;2023-05-22T08:25:40;94685.47;;;26.69;36.67
6134;BME280;3098;42.678;23.364;2023-05-22T08:28:07;94684.84;;;27.63;31.41
6134;BME280;3098;42.678;23.364;2023-05-22T08:30:35;94661.72;;;25.43;35.94
6134;BME280;3098;42.678;23.364;2023-05-22T08:33:02;94613.50;;;24.15;35.59
6134;BME280;3098;42.678;23.364;2023-05-22T08:35:29;94675.84;;;24.12;38.39
6134;BME280;3098;42.678;23.364;2023-05-22T08:37:58;94561.13;;;24.96;35.76
6134;BME280;3098;42.678;23.364;2023-05-22T08:40:33;94660.03;;;27.42;32.61
6134;BME280;3098;42.678;23.364;2023-05-22T08:43:00;94552.13;;;25.03;33.63
6134;BME280;3098;42.678;23.364;2023-05-22T08:45:28;94636.44;;;23.96;35.90
6134;BME280;3098;42.678;23.364;2023-05-22T08:47:58;94672.72;;;24.98;35.23
6134;BME280;3098;42.678;23.364;2023-05-22T08:50:27;94494.06;;;25.74;32.17
6134;BME280;3098;42.678;23.364;2023-05-22T08:52:54;94676.06;;;27.56;30.16
6134;BME280;3098;42.678;23.364;2023-05-22T08:55:24;94537.28;;;27.13;29.82
6134;BME280;3098;42.678;23.364;2023-05-22T08:57:52;94642.66;;;25.77;31.39
6134;BME280;3098;42.678;23.364;2023-05-22T09:00:21;94647.38;;;25.42;32.35
6134;BME280;3098;42.678;23.364;2023-05-22T09:02:49;94648.84;;;25.20;32.19
6134;BME280;3098;42.678;23.364;2023-05-22T09:05:16;94684.16;;;26.04;31.51
6134;BME280;3098;42.678;23.364;2023-05-22T09:07:43;94691.91;;;24.81;32.88
6134;BME280;3098;42.678;23.364;2023-05-22T09:10:10;94675.13;;;25.23;33.29
6134;BME280;3098;42.678;23.364;2023-05-22T09:12:58;94575.50;;;24.93;33.01
6134;BME280;3098;42.678;23.364;2023-05-22T09:15:28;94642.19;;;24.91;33.80
6134;BME280;3098;42.678;23.364;2023-05-22T09:17:56;94644.94;;;24.87;34.29
6134;BME280;3098;42.678;23.364;2023-05-22T09:20:23;94666.13;;;24.58;34.90
6134;BME280;3098;42.678;23.364;2023-05-22T09:22:50;94617.78;;;24.09;35.23
6134;BME280;3098;42.678;23.364;2023-05-22T09:25:17;94670.31;;;23.67;35.87
6134;BME280;3098;42.678;23.364;2023-05-22T09:27:46;94582.75;;;23.29;35.10
6134;BME280;3098;42.678;23.364;2023-05-22T09:30:15;94671.41;;;22.94;36.78
6134;BME280;3098;42.678;23.364;2023-05-22T09:32:42;94672.06;;;23.19;36.29
6134;BME280;3098;42.678;23.364;2023-05-22T09:35:11;94619.13;;;23.18;36.32
6134;BME280;3098;42.678;23.364;2023-05-22T09:37:40;94670.06;;;23.37;36.24
6134;BME280;3098;42.678;23.364;2023-05-22T09:40:09;94669.91;;;22.57;37.48
6134;BME280;3098;42.678;23.364;2023-05-22T09:42:38;94615.19;;;21.93;39.57
6134;BME280;3098;42.678;23.364;2023-05-22T09:45:11;94658.78;;;22.02;40.39
6134;BME280;3098;42.678;23.364;2023-05-22T09:47:38;94641.00;;;21.84;41.00
6134;BME280;3098;42.678;23.364;2023-05-22T09:50:06;94628.63;;;21.51;42.41
6134;BME280;3098;42.678;23.364;2023-05-22T09:52:36;94574.50;;;20.98;44.58
6134;BME280;3098;42.678;23.364;2023-05-22T09:55:05;94670.22;;;21.43;45.56
6134;BME280;3098;42.678;23.364;2023-05-22T09:57:40;94678.75;;;21.48;45.52
6134;BME280;3098;42.678;23.364;2023-05-22T10:00:13;94666.94;;;20.95;46.94
6134;BME280;3098;42.678;23.364;2023-05-22T10:02:44;94673.88;;;20.96;47.36
6134;BME280;3098;42.678;23.364;2023-05-22T10:05:12;94668.47;;;20.85;48.01
6134;BME280;3098;42.678;23.364;2023-05-22T10:07:47;94611.84;;;20.85;47.85
6134;BME280;3098;42.678;23.364;2023-05-22T10:10:17;94664.03;;;21.35;46.93
6134;BME280;3098;42.678;23.364;2023-05-22T10:12:50;94627.63;;;20.87;48.73
6134;BME280;3098;42.678;23.364;2023-05-22T10:15:20;94676.91;;;20.80;50.10
6134;BME280;3098;42.678;23.364;2023-05-22T10:17:48;94668.81;;;20.84;50.78
6134;BME280;3098;42.678;23.364;2023-05-22T10:20:16;94674.41;;;20.50;51.04
6134;BME280;3098;42.678;23.364;2023-05-22T10:22:45;94614.09;;;20.11;52.22
6134;BME280;3098;42.678;23.364;2023-05-22T10:25:16;94672.94;;;20.60;51.89
6134;BME280;3098;42.678;23.364;2023-05-22T10:27:44;94634.44;;;19.58;55.28
6134;BME280;3098;42.678;23.364;2023-05-22T10:30:22;94682.09;;;19.57;59.18
6134;BME280;3098;42.678;23.364;2023-05-22T10:32:55;94690.38;;;19.41;55.24
6134;BME280;3098;42.678;23.364;2023-05-22T10:35:30;94683.91;;;18.83;63.24
6134;BME280;3098;42.678;23.364;2023-05-22T10:38:12;94616.28;;;17.50;83.66
6134;BME280;3098;42.678;23.364;2023-05-22T10:40:41;94685.22;;;16.88;86.61
6134;BME280;3098;42.678;23.364;2023-05-22T10:43:10;94700.84;;;16.86;89.18
6134;BME280;3098;42.678;23.364;2023-05-22T10:45:39;94688.31;;;16.90;92.01
6134;BME280;3098;42.678;23.364;2023-05-22T10:48:07;94700.66;;;17.14;94.15
6134;BME280;3098;42.678;23.364;2023-05-22T10:50:36;94688.72;;;17.11;96.12
6134;BME280;3098;42.678;23.364;2023-05-22T10:53:22;94686.44;;;17.33;94.94
6134;BME280;3098;42.678;23.364;2023-05-22T10:55:50;94676.75;;;17.66;98.73
6134;BME280;3098;42.678;23.364;2023-05-22T10:58:24;94593.25;;;17.68;97.28
6134;BME280;3098;42.678;23.364;2023-05-22T11:03:53;94672.66;;;19.04;88.29
6134;BME280;3098;42.678;23.364;2023-05-22T11:06:33;94616.69;;;19.49;86.33
6134;BME280;3098;42.678;23.364;2023-05-22T11:09:16;94674.97;;;20.77;82.86
6134;BME280;3098;42.678;23.364;2023-05-22T11:11:44;94599.16;;;20.93;78.90
6134;BME280;3098;42.678;23.364;2023-05-22T11:14:15;94657.56;;;21.68;80.38
6134;BME280;3098;42.678;23.364;2023-05-22T11:16:42;94651.03;;;22.40;70.36
6134;BME280;3098;42.678;23.364;2023-05-22T11:19:10;94626.00;;;22.07;67.96
6134;BME280;3098;42.678;23.364;2023-05-22T11:21:45;94677.63;;;20.74;63.80
6134;BME280;3098;42.678;23.364;2023-05-22T11:24:15;94692.72;;;20.27;64.88
6134;BME280;3098;42.678;23.364;2023-05-22T11:26:43;94663.13;;;19.10;68.70
6134;BME280;3098;42.678;23.364;2023-05-22T11:29:10;94675.41;;;18.51;72.68
6134;BME280;3098;42.678;23.364;2023-05-22T11:31:37;94690.56;;;18.14;75.14
6134;BME280;3098;42.678;23.364;2023-05-22T11:34:04;94680.94;;;17.45;74.86
6134;BME280;3098;42.678;23.364;2023-05-22T11:36:33;94697.88;;;17.68;74.83
6134;BME280;3098;42.678;23.364;2023-05-22T11:39:01;94606.38;;;17.08;72.67
6134;BME280;3098;42.678;23.364;2023-05-22T11:41:31;94712.44;;;17.51;75.17
6134;BME280;3098;42.678;23.364;2023-05-22T11:43:58;94711.63;;;17.09;76.17
6134;BME280;3098;42.678;23.364;2023-05-22T11:46:26;94650.44;;;16.73;77.58
6134;BME280;3098;42.678;23.364;2023-05-22T11:48:55;94723.34;;;17.01;78.86
6134;BME280;3098;42.678;23.364;2023-05-22T11:51:22;94631.91;;;16.29;77.57
6134;BME280;3098;42.678;23.364;2023-05-22T11:53:51;94722.16;;;16.98;78.92
6134;BME280;3098;42.678;23.364;2023-05-22T11:56:19;94707.47;;;17.11;78.58
6134;BME280;3098;42.678;23.364;2023-05-22T11:58:47;94597.50;;;16.47;77.39
6134;BME280;3098;42.678;23.364;2023-05-22T12:01:16;94678.03;;;16.57;77.91
6134;BME280;3098;42.678;23.364;2023-05-22T12:03:43;94713.31;;;16.59;83.60
6134;BME280;3098;42.678;23.364;2023-05-22T12:06:10;94657.44;;;15.92;86.48
6134;BME280;3098;42.678;23.364;2023-05-22T12:08:38;94720.69;;;16.00;89.73
6134;BME280;3098;42.678;23.364;2023-05-22T12:11:10;94716.09;;;15.41;99.87
6134;BME280;3098;42.678;23.364;2023-05-22T12:13:38;94699.66;;;14.84;100.00
6134;BME280;3098;42.678;23.364;2023-05-22T12:16:17;94720.50;;;14.66;100.00
6134;BME280;3098;42.678;23.364;2023-05-22T12:18:46;94702.09;;;14.49;100.00
6134;BME280;3098;42.678;23.364;2023-05-22T12:21:12;94679.66;;;14.38;100.00
6134;BME280;3098;42.678;23.364;2023-05-22T12:23:47;94683.13;;;14.66;100.00
6134;BME280;3098;42.678;23.364;2023-05-22T12:26:16;94668.22;;;14.65;100.00
6134;BME280;3098;42.678;23.364;2023-05-22T12:28:43;94614.31;;;14.60;100.00
6134;BME280;3098;42.678;23.364;2023-05-22T12:31:19;94683.75;;;15.15;100.00
6134;BME280;3098;42.678;23.364;2023-05-22T12:33:46;94672.81;;;15.20;100.00
6134;BME280;3098;42.678;23.364;2023-05-22T12:36:14;94708.09;;;15.41;100.00
6134;BME280;3098;42.678;23.364;2023-05-22T12:38:42;94714.97;;;15.55;100.00
6134;BME280;3098;42.678;23.364;2023-05-22T12:41:10;94704.28;;;15.70;100.00
6134;BME280;3098;42.678;23.364;2023-05-22T12:43:39;94521.47;;;14.81;100.00
6134;BME280;3098;42.678;23.364;2023-05-22T12:46:06;94565.25;;;15.23;100.00
6134;BME280;3098;42.678;23.364;2023-05-22T12:48:33;94699.41;;;16.54;98.96
6134;BME280;3098;42.678;23.364;2023-05-22T12:51:00;94710.81;;;16.86;96.10
6134;BME280;3098;42.678;23.364;2023-05-22T12:53:27;94693.38;;;17.14;95.14
6134;BME280;3098;42.678;23.364;2023-05-22T12:55:54;94622.72;;;17.03;92.79
6134;BME280;3098;42.678;23.364;2023-05-22T12:58:21;94713.06;;;17.83;88.67
6134;BME280;3098;42.678;23.364;2023-05-22T13:00:50;94670.03;;;18.02;84.50
6134;BME280;3098;42.678;23.364;2023-05-22T13:03:17;94705.34;;;18.27;86.67
6134;BME280;3098;42.678;23.364;2023-05-22T13:05:44;94692.75;;;18.57;87.18
6134;BME280;3098;42.678;23.364;2023-05-22T13:08:12;94697.56;;;19.01;86.09
6134;BME280;3098;42.678;23.364;2023-05-22T13:10:39;94675.19;;;18.93;83.43
6134;BME280;3098;42.678;23.364;2023-05-22T13:13:06;94683.00;;;19.35;85.58
6134;BME280;3098;42.678;23.364;2023-05-22T13:15:33;94610.69;;;19.26;78.45
6134;BME280;3098;42.678;23.364;2023-05-22T13:18:02;94608.34;;;19.62;72.99